createdAt,value
2019-03-16T00:01:33.115Z,11.20
2019-03-16T00:04:01.645Z,11.20
2019-03-16T00:06:30.179Z,11.20
2019-03-16T00:08:58.611Z,11.10
2019-03-16T00:11:27.050Z,11.20
2019-03-16T00:13:55.519Z,11.10
2019-03-16T00:16:23.958Z,11.10
2019-03-16T00:18:52.423Z,11.20
2019-03-16T00:21:20.886Z,11.10
2019-03-16T00:23:49.391Z,11.10
2019-03-16T00:26:17.998Z,11.10
2019-03-16T00:28:46.443Z,11.10
2019-03-16T00:31:14.902Z,11.00
2019-03-16T00:33:43.514Z,11.00
2019-03-16T00:36:11.979Z,11.00
2019-03-16T00:38:40.486Z,11.00
2019-03-16T00:41:28.295Z,11.00
2019-03-16T00:43:56.803Z,11.00
2019-03-16T00:46:25.246Z,11.00
2019-03-16T00:48:53.707Z,11.00
2019-03-16T00:51:22.214Z,10.90
2019-03-16T00:53:50.687Z,10.90
2019-03-16T00:56:19.859Z,10.90
2019-03-16T00:58:48.386Z,10.90
2019-03-16T01:01:16.850Z,10.90
2019-03-16T01:03:46.034Z,10.90
2019-03-16T01:06:14.681Z,10.90
2019-03-16T01:08:43.243Z,10.90
2019-03-16T01:11:11.704Z,10.90
2019-03-16T01:13:40.142Z,10.90
2019-03-16T01:16:08.579Z,10.90
2019-03-16T01:18:37.043Z,10.80
2019-03-16T01:21:05.480Z,10.90
2019-03-16T01:23:33.941Z,10.90
2019-03-16T01:26:21.644Z,10.90
2019-03-16T01:29:09.515Z,10.80
2019-03-16T01:31:57.216Z,10.80
2019-03-16T01:34:25.755Z,10.80
2019-03-16T01:36:54.262Z,10.80
2019-03-16T01:39:22.770Z,10.90
2019-03-16T01:41:51.232Z,10.90
2019-03-16T01:44:19.677Z,10.90
2019-03-16T01:46:48.143Z,10.90
2019-03-16T01:49:16.586Z,10.90
2019-03-16T01:51:45.219Z,10.90
2019-03-16T01:54:13.666Z,10.90
2019-03-16T01:56:42.138Z,10.90
2019-03-16T01:59:10.667Z,10.90
2019-03-16T02:01:58.500Z,10.90
2019-03-16T02:04:46.374Z,10.90
2019-03-16T02:07:14.883Z,10.90
2019-03-16T02:09:43.345Z,10.90
2019-03-16T02:12:11.858Z,10.90
2019-03-16T02:14:59.670Z,10.90
2019-03-16T02:17:28.969Z,11.00
2019-03-16T02:19:58.111Z,10.90
2019-03-16T02:22:27.108Z,10.90
2019-03-16T02:24:55.602Z,10.90
2019-03-16T02:27:24.066Z,10.90
2019-03-16T02:29:52.578Z,11.00
2019-03-16T02:32:21.018Z,10.90
2019-03-16T02:34:49.552Z,11.00
2019-03-16T02:37:18.066Z,10.90
2019-03-16T02:39:46.600Z,10.90
2019-03-16T02:42:15.223Z,10.90
2019-03-16T02:44:43.844Z,10.90
2019-03-16T02:47:12.309Z,10.90
2019-03-16T02:49:40.809Z,10.90
2019-03-16T02:52:09.262Z,10.90
2019-03-16T02:54:37.706Z,10.90
2019-03-16T02:57:06.177Z,10.90
2019-03-16T02:59:34.619Z,10.90
2019-03-16T03:02:03.060Z,10.90
2019-03-16T03:04:31.674Z,10.90
2019-03-16T03:07:00.217Z,10.90
2019-03-16T03:09:48.168Z,10.80
2019-03-16T03:12:35.951Z,10.80
2019-03-16T03:15:25.352Z,10.80
2019-03-16T03:17:53.802Z,10.80
2019-03-16T03:20:22.235Z,10.80
2019-03-16T03:22:50.880Z,10.70
2019-03-16T03:25:19.315Z,10.70
2019-03-16T03:27:47.764Z,10.70
2019-03-16T03:30:16.308Z,10.70
2019-03-16T03:33:04.252Z,10.70
2019-03-16T03:35:52.110Z,10.70
2019-03-16T03:38:20.562Z,10.70
2019-03-16T03:40:49.167Z,10.70
2019-03-16T03:43:17.706Z,10.70
2019-03-16T03:45:46.165Z,10.60
2019-03-16T03:48:14.660Z,10.70
2019-03-16T03:50:43.208Z,10.60
2019-03-16T03:53:11.795Z,10.60
2019-03-16T03:55:40.326Z,10.60
2019-03-16T03:58:09.203Z,10.60
2019-03-16T04:00:39.151Z,10.50
2019-03-16T04:03:07.699Z,10.50
2019-03-16T04:05:36.162Z,10.60
2019-03-16T04:08:04.830Z,10.60
2019-03-16T04:10:52.761Z,10.60
2019-03-16T04:13:40.615Z,10.60
2019-03-16T04:16:09.201Z,10.60
2019-03-16T04:18:37.871Z,10.60
2019-03-16T04:21:25.746Z,10.60
2019-03-16T04:23:54.254Z,10.70
2019-03-16T04:26:22.772Z,10.70
2019-03-16T04:28:51.305Z,10.70
2019-03-16T04:31:19.759Z,10.70
2019-03-16T04:34:07.645Z,10.70
2019-03-16T04:36:36.150Z,10.80
2019-03-16T04:39:06.307Z,10.70
2019-03-16T04:41:34.842Z,10.70
2019-03-16T04:44:03.604Z,10.70
2019-03-16T04:46:51.479Z,10.80
2019-03-16T04:49:19.920Z,10.80
2019-03-16T04:51:48.363Z,10.80
2019-03-16T04:54:16.837Z,10.80
2019-03-16T04:56:45.274Z,10.80
2019-03-16T04:59:33.146Z,10.80
2019-03-16T05:02:20.926Z,10.80
2019-03-16T05:04:49.455Z,10.80
2019-03-16T05:07:17.978Z,10.80
2019-03-16T05:09:46.419Z,10.80
2019-03-16T05:12:14.881Z,10.80
2019-03-16T05:14:43.470Z,10.80
2019-03-16T05:17:11.907Z,10.80
2019-03-16T05:19:40.378Z,10.80
2019-03-16T05:22:08.884Z,10.90
2019-03-16T05:24:37.327Z,10.90
2019-03-16T05:27:05.779Z,10.90
2019-03-16T05:29:34.225Z,10.90
2019-03-16T05:32:02.663Z,10.90
2019-03-16T05:34:31.374Z,10.90
2019-03-16T05:37:00.342Z,10.90
2019-03-16T05:39:28.849Z,10.90
2019-03-16T05:41:57.314Z,10.80
2019-03-16T05:44:25.819Z,10.80
2019-03-16T05:46:54.576Z,10.70
2019-03-16T05:49:23.034Z,10.60
2019-03-16T05:52:10.896Z,10.60
2019-03-16T05:54:39.363Z,10.60
2019-03-16T05:57:07.801Z,10.60
2019-03-16T05:59:55.676Z,10.60
2019-03-16T06:02:24.115Z,10.50
2019-03-16T06:04:52.630Z,10.50
2019-03-16T06:07:21.094Z,10.50
2019-03-16T06:09:49.544Z,10.50
2019-03-16T06:12:18.006Z,10.60
2019-03-16T06:14:46.572Z,10.60
2019-03-16T06:17:15.062Z,10.60
2019-03-16T06:19:43.500Z,10.60
2019-03-16T06:22:12.032Z,10.60
2019-03-16T06:24:59.877Z,10.60
2019-03-16T06:27:28.350Z,10.60
2019-03-16T06:29:56.938Z,10.60
2019-03-16T06:32:25.517Z,10.50
2019-03-16T06:34:53.983Z,10.60
2019-03-16T06:37:22.418Z,10.60
2019-03-16T06:39:50.862Z,10.60
2019-03-16T06:42:19.336Z,10.60
2019-03-16T06:44:47.778Z,10.50
2019-03-16T06:47:16.602Z,10.50
2019-03-16T06:49:45.058Z,10.50
2019-03-16T06:52:32.914Z,10.50
2019-03-16T06:55:01.395Z,10.50
2019-03-16T06:57:29.993Z,10.40
2019-03-16T06:59:58.573Z,10.40
2019-03-16T07:02:27.035Z,10.40
2019-03-16T07:04:57.018Z,10.40
2019-03-16T07:07:44.819Z,10.40
2019-03-16T07:10:14.099Z,10.40
2019-03-16T07:12:42.616Z,10.40
2019-03-16T07:15:12.595Z,10.40
2019-03-16T07:17:41.110Z,10.40
2019-03-16T07:20:13.774Z,10.40
2019-03-16T07:22:43.124Z,10.50
2019-03-16T07:25:11.797Z,10.50
2019-03-16T07:27:40.315Z,10.50
2019-03-16T07:30:18.166Z,10.50
2019-03-16T07:32:46.680Z,10.50
2019-03-16T07:35:15.120Z,10.50
2019-03-16T07:37:43.586Z,10.50
2019-03-16T07:40:33.607Z,10.50
2019-03-16T07:43:02.108Z,10.50
2019-03-16T07:45:30.553Z,10.60
2019-03-16T07:48:18.351Z,10.50
2019-03-16T07:50:46.790Z,10.60
2019-03-16T07:53:15.323Z,10.60
2019-03-16T07:55:43.842Z,10.60
2019-03-16T07:58:12.383Z,10.60
2019-03-16T08:00:40.823Z,10.60
2019-03-16T08:03:09.284Z,10.50
2019-03-16T08:05:37.798Z,10.60
2019-03-16T08:08:06.301Z,10.50
2019-03-16T08:10:34.760Z,10.50
2019-03-16T08:13:03.198Z,10.60
2019-03-16T08:15:31.661Z,10.60
2019-03-16T08:18:00.175Z,10.60
2019-03-16T08:20:31.263Z,10.50
2019-03-16T08:22:58.787Z,10.50
2019-03-16T08:25:27.247Z,10.50
2019-03-16T08:27:55.692Z,10.50
2019-03-16T08:30:24.192Z,10.50
2019-03-16T08:32:52.751Z,10.50
2019-03-16T08:35:21.251Z,10.50
2019-03-16T08:37:49.778Z,10.60
2019-03-16T08:40:18.235Z,10.70
2019-03-16T08:42:46.672Z,10.70
2019-03-16T08:45:15.215Z,10.70
2019-03-16T08:47:43.724Z,10.70
2019-03-16T08:50:12.400Z,10.70
2019-03-16T08:52:40.863Z,10.60
2019-03-16T08:55:09.926Z,10.60
2019-03-16T08:57:38.435Z,10.60
2019-03-16T09:00:09.607Z,10.60
2019-03-16T09:02:38.067Z,10.50
2019-03-16T09:05:07.547Z,10.50
2019-03-16T09:07:36.051Z,10.50
2019-03-16T09:10:05.853Z,10.50
2019-03-16T09:12:34.355Z,10.50
2019-03-16T09:15:02.861Z,10.60
2019-03-16T09:17:31.572Z,10.70
2019-03-16T09:20:00.081Z,10.70
2019-03-16T09:22:29.786Z,10.80
2019-03-16T09:24:58.331Z,10.90
2019-03-16T09:27:31.490Z,10.90
2019-03-16T09:29:56.926Z,10.90
2019-03-16T09:32:25.390Z,11.00
2019-03-16T09:34:53.824Z,11.00
2019-03-16T09:37:22.324Z,11.00
2019-03-16T09:39:50.787Z,11.00
2019-03-16T09:42:19.222Z,11.10
2019-03-16T09:44:47.658Z,11.10
2019-03-16T09:47:16.118Z,11.30
2019-03-16T09:49:44.556Z,11.30
2019-03-16T09:52:12.996Z,11.20
2019-03-16T09:54:41.455Z,11.40
2019-03-16T09:57:09.901Z,11.70
2019-03-16T09:59:38.338Z,11.90
2019-03-16T10:02:06.883Z,12.10
2019-03-16T10:04:35.322Z,12.20
2019-03-16T10:07:03.761Z,12.10
2019-03-16T10:09:32.223Z,12.20
2019-03-16T10:12:00.705Z,12.00
2019-03-16T10:14:29.196Z,12.00
2019-03-16T10:16:57.662Z,12.00
2019-03-16T10:19:26.091Z,11.90
2019-03-16T10:21:54.534Z,11.80
2019-03-16T10:24:22.996Z,11.70
2019-03-16T10:26:51.438Z,11.50
2019-03-16T10:29:19.882Z,11.40
2019-03-16T10:31:48.409Z,11.40
2019-03-16T10:34:16.847Z,11.30
2019-03-16T10:36:45.536Z,11.20
2019-03-16T10:39:13.999Z,11.20
2019-03-16T10:41:42.580Z,11.20
2019-03-16T10:44:11.015Z,11.20
2019-03-16T10:46:39.466Z,11.20
2019-03-16T10:49:07.909Z,11.20
2019-03-16T10:51:36.342Z,11.30
2019-03-16T10:54:04.916Z,11.30
2019-03-16T10:56:33.419Z,11.10
2019-03-16T10:59:01.929Z,11.20
2019-03-16T11:01:30.464Z,11.20
2019-03-16T11:03:58.904Z,11.20
2019-03-16T11:06:27.341Z,11.10
2019-03-16T11:08:55.871Z,11.10
2019-03-16T11:11:24.374Z,11.10
2019-03-16T11:13:52.817Z,11.10
2019-03-16T11:16:21.347Z,11.10
2019-03-16T11:18:49.783Z,11.10
2019-03-16T11:21:18.219Z,11.20
2019-03-16T11:23:46.675Z,11.30
2019-03-16T11:26:15.115Z,11.60
2019-03-16T11:28:43.547Z,11.70
2019-03-16T11:31:12.013Z,11.90
2019-03-16T11:33:40.457Z,12.00
2019-03-16T11:36:08.891Z,12.10
2019-03-16T11:38:37.359Z,12.30
2019-03-16T11:41:05.802Z,13.00
2019-03-16T11:43:34.239Z,14.10
2019-03-16T11:46:02.722Z,14.70
2019-03-16T11:48:31.223Z,14.70
2019-03-16T11:50:59.734Z,14.30
2019-03-16T11:53:28.245Z,14.50
2019-03-16T11:55:56.747Z,14.30
2019-03-16T11:58:25.176Z,14.30
2019-03-16T12:00:53.638Z,14.10
2019-03-16T12:03:22.078Z,14.10
2019-03-16T12:05:50.522Z,13.60
2019-03-16T12:08:18.982Z,13.70
2019-03-16T12:10:47.419Z,13.60
2019-03-16T12:13:17.797Z,13.40
2019-03-16T12:15:46.046Z,13.30
2019-03-16T12:18:14.495Z,13.10
2019-03-16T12:20:42.930Z,12.90
2019-03-16T12:23:11.399Z,12.80
2019-03-16T12:25:39.839Z,12.70
2019-03-16T12:28:08.277Z,12.80
2019-03-16T12:30:36.740Z,12.80
2019-03-16T12:33:05.182Z,12.80
2019-03-16T12:35:33.701Z,12.90
2019-03-16T12:38:02.171Z,13.00
2019-03-16T12:40:30.610Z,13.10
2019-03-16T12:42:59.045Z,13.10
2019-03-16T12:45:27.507Z,13.20
2019-03-16T12:47:55.950Z,13.20
2019-03-16T12:50:24.388Z,13.20
2019-03-16T12:52:52.871Z,13.40
2019-03-16T12:55:21.384Z,13.70
2019-03-16T12:57:49.824Z,13.60
2019-03-16T13:00:19.196Z,13.60
2019-03-16T13:02:47.853Z,13.60
2019-03-16T13:05:16.311Z,13.70
2019-03-16T13:07:44.834Z,13.70
2019-03-16T13:10:17.899Z,13.70
2019-03-16T13:12:46.550Z,13.80
2019-03-16T13:15:15.225Z,14.00
2019-03-16T13:17:43.731Z,14.10
2019-03-16T13:20:16.275Z,14.10
2019-03-16T13:22:44.887Z,14.00
2019-03-16T13:25:13.538Z,14.00
2019-03-16T13:27:42.050Z,14.00
2019-03-16T13:30:13.587Z,14.10
2019-03-16T13:32:42.095Z,14.10
2019-03-16T13:35:10.687Z,14.10
2019-03-16T13:37:39.301Z,14.40
2019-03-16T13:40:27.167Z,16.00
2019-03-16T13:43:15.042Z,16.20
2019-03-16T13:45:43.491Z,17.20
2019-03-16T13:48:31.311Z,17.00
2019-03-16T13:51:12.311Z,16.30
2019-03-16T13:53:40.863Z,15.90
2019-03-16T13:56:09.383Z,15.40
2019-03-16T13:58:40.622Z,15.30
2019-03-16T14:01:08.107Z,15.50
2019-03-16T14:03:36.676Z,15.90
2019-03-16T14:06:05.806Z,16.00
2019-03-16T14:08:34.267Z,15.90
2019-03-16T14:11:02.790Z,15.70
2019-03-16T14:13:31.495Z,15.40
2019-03-16T14:16:00.051Z,15.50
2019-03-16T14:18:28.552Z,15.40
2019-03-16T14:20:57.060Z,15.20
2019-03-16T14:23:25.599Z,15.00
2019-03-16T14:25:54.031Z,14.70
2019-03-16T14:28:22.546Z,14.60
2019-03-16T14:30:51.105Z,14.10
2019-03-16T14:33:19.626Z,13.80
2019-03-16T14:35:48.067Z,13.60
2019-03-16T14:38:16.535Z,13.20
2019-03-16T14:40:45.066Z,13.20
2019-03-16T14:43:13.647Z,13.40
2019-03-16T14:45:42.210Z,13.30
2019-03-16T14:48:10.703Z,13.10
2019-03-16T14:50:39.226Z,13.40
2019-03-16T14:53:07.713Z,13.40
2019-03-16T14:55:36.229Z,13.40
2019-03-16T14:58:24.032Z,13.30
2019-03-16T15:00:52.479Z,13.20
2019-03-16T15:03:20.990Z,13.30
2019-03-16T15:06:08.793Z,13.20
2019-03-16T15:08:37.303Z,13.30
2019-03-16T15:11:05.797Z,13.20
2019-03-16T15:13:34.331Z,13.20
2019-03-16T15:16:02.904Z,13.10
2019-03-16T15:18:31.478Z,13.10
2019-03-16T15:21:00.211Z,13.20
2019-03-16T15:23:28.659Z,13.10
2019-03-16T15:25:57.102Z,13.20
2019-03-16T15:28:25.567Z,13.10
2019-03-16T15:30:54.030Z,13.20
2019-03-16T15:33:22.530Z,13.20
2019-03-16T15:35:51.071Z,13.10
2019-03-16T15:38:25.477Z,13.10
2019-03-16T15:40:54.132Z,13.10
2019-03-16T15:43:22.690Z,13.10
2019-03-16T15:45:57.112Z,13.10
2019-03-16T15:48:26.219Z,13.20
2019-03-16T15:50:54.705Z,13.30
2019-03-16T15:53:23.209Z,13.30
2019-03-16T15:55:51.650Z,13.10
2019-03-16T15:58:39.458Z,13.10
2019-03-16T16:01:08.137Z,13.00
2019-03-16T16:03:36.940Z,13.00
2019-03-16T16:06:05.461Z,13.00
2019-03-16T16:08:33.905Z,13.00
2019-03-16T16:11:02.373Z,12.90
2019-03-16T16:13:30.887Z,12.90
2019-03-16T16:15:59.409Z,12.80
2019-03-16T16:18:27.843Z,12.80
2019-03-16T16:20:56.304Z,12.70
2019-03-16T16:23:44.079Z,12.70
2019-03-16T16:26:12.544Z,12.70
2019-03-16T16:28:40.985Z,12.60
2019-03-16T16:31:16.084Z,12.50
2019-03-16T16:33:39.643Z,12.50
2019-03-16T16:36:08.635Z,12.40
2019-03-16T16:38:37.206Z,12.40
2019-03-16T16:41:05.758Z,12.30
2019-03-16T16:43:34.266Z,12.20
2019-03-16T16:46:02.714Z,12.20
2019-03-16T16:48:31.255Z,12.20
2019-03-16T16:50:59.808Z,12.20
2019-03-16T16:53:28.240Z,12.20
2019-03-16T16:55:56.698Z,12.20
2019-03-16T16:58:25.280Z,12.20
2019-03-16T17:00:53.723Z,12.10
2019-03-16T17:03:22.199Z,12.10
2019-03-16T17:05:50.695Z,12.00
2019-03-16T17:08:19.749Z,12.00
2019-03-16T17:10:48.270Z,12.00
2019-03-16T17:13:36.116Z,11.90
2019-03-16T17:16:06.734Z,11.80
2019-03-16T17:18:35.172Z,11.70
2019-03-16T17:21:03.615Z,11.60
2019-03-16T17:23:32.075Z,11.50
2019-03-16T17:26:00.544Z,11.40
2019-03-16T17:28:48.408Z,11.30
2019-03-16T17:31:16.834Z,11.20
2019-03-16T17:33:45.275Z,11.00
2019-03-16T17:36:13.738Z,10.90
2019-03-16T17:38:42.210Z,10.80
2019-03-16T17:41:10.651Z,10.70
2019-03-16T17:43:58.466Z,10.60
2019-03-16T17:46:26.913Z,10.50
2019-03-16T17:48:55.429Z,10.40
2019-03-16T17:51:23.907Z,10.30
2019-03-16T17:53:52.347Z,10.40
2019-03-16T17:56:21.261Z,10.40
2019-03-16T17:58:50.033Z,10.40
2019-03-16T18:01:18.634Z,10.30
2019-03-16T18:03:47.130Z,10.30
2019-03-16T18:06:15.595Z,10.30
2019-03-16T18:08:44.041Z,10.20
2019-03-16T18:11:12.483Z,10.00
2019-03-16T18:13:40.939Z,9.80
2019-03-16T18:16:09.371Z,9.70
2019-03-16T18:18:37.803Z,9.60
2019-03-16T18:21:06.263Z,9.40
2019-03-16T18:23:34.701Z,9.20
2019-03-16T18:26:03.150Z,9.10
2019-03-16T18:28:31.668Z,8.90
2019-03-16T18:31:00.116Z,8.80
2019-03-16T18:33:28.615Z,8.70
2019-03-16T18:35:57.075Z,8.50
2019-03-16T18:38:25.576Z,8.40
2019-03-16T18:40:54.007Z,8.30
2019-03-16T18:43:22.538Z,8.00
2019-03-16T18:45:50.970Z,8.00
2019-03-16T18:48:19.479Z,7.90
2019-03-16T18:50:47.942Z,7.80
2019-03-16T18:53:16.460Z,7.80
2019-03-16T18:55:44.890Z,8.00
2019-03-16T18:58:13.355Z,8.40
2019-03-16T19:00:41.789Z,8.50
2019-03-16T19:03:11.653Z,8.60
2019-03-16T19:05:40.366Z,8.60
2019-03-16T19:08:08.799Z,8.60
2019-03-16T19:10:37.302Z,8.60
2019-03-16T19:13:05.858Z,8.60
2019-03-16T19:15:34.309Z,8.70
2019-03-16T19:18:02.814Z,8.80
2019-03-16T19:20:31.306Z,8.90
2019-03-16T19:22:59.835Z,8.90
2019-03-16T19:25:49.053Z,9.00
2019-03-16T19:28:18.606Z,9.00
2019-03-16T19:30:47.217Z,9.00
2019-03-16T19:33:21.190Z,9.10
2019-03-16T19:35:49.646Z,9.20
2019-03-16T19:38:18.324Z,9.20
2019-03-16T19:40:46.874Z,9.20
2019-03-16T19:43:15.372Z,9.30
2019-03-16T19:45:43.841Z,9.20
2019-03-16T19:48:12.354Z,9.10
2019-03-16T19:50:40.930Z,9.00
2019-03-16T19:53:09.610Z,8.90
2019-03-16T19:55:38.070Z,8.80
2019-03-16T19:58:25.850Z,8.70
2019-03-16T20:00:54.394Z,8.70
2019-03-16T20:03:22.826Z,8.60
2019-03-16T20:06:10.636Z,8.60
2019-03-16T20:08:58.557Z,8.50
2019-03-16T20:11:46.355Z,8.50
2019-03-16T20:14:14.795Z,8.50
2019-03-16T20:16:43.367Z,8.50
2019-03-16T20:19:11.891Z,8.60
2019-03-16T20:21:40.446Z,8.60
2019-03-16T20:24:28.249Z,8.50
2019-03-16T20:26:56.691Z,8.50
2019-03-16T20:29:25.228Z,8.40
2019-03-16T20:31:53.876Z,8.00
2019-03-16T20:34:22.314Z,7.80
2019-03-16T20:36:50.753Z,7.60
2019-03-16T20:39:19.216Z,7.30
2019-03-16T20:41:47.657Z,7.10
2019-03-16T20:44:16.195Z,7.10
2019-03-16T20:46:44.662Z,6.90
2019-03-16T20:49:13.172Z,6.90
2019-03-16T20:51:41.604Z,6.80
2019-03-16T20:54:10.160Z,6.60
2019-03-16T20:56:38.595Z,6.50
2019-03-16T20:59:07.031Z,6.30
2019-03-16T21:01:35.656Z,6.00
2019-03-16T21:04:04.371Z,5.90
2019-03-16T21:06:32.875Z,5.80
2019-03-16T21:09:03.371Z,5.70
2019-03-16T21:11:31.562Z,5.50
2019-03-16T21:14:00.011Z,5.40
2019-03-16T21:16:28.477Z,5.40
2019-03-16T21:18:56.910Z,5.40
2019-03-16T21:21:25.382Z,5.30
2019-03-16T21:23:53.893Z,5.10
2019-03-16T21:26:22.334Z,5.00
2019-03-16T21:28:50.786Z,4.70
2019-03-16T21:31:19.333Z,4.60
2019-03-16T21:33:47.861Z,4.60
2019-03-16T21:36:16.306Z,4.70
2019-03-16T21:38:44.838Z,4.80
2019-03-16T21:41:13.267Z,4.80
2019-03-16T21:43:41.751Z,4.70
2019-03-16T21:46:10.223Z,4.70
2019-03-16T21:48:38.747Z,4.70
2019-03-16T21:51:07.178Z,5.00
2019-03-16T21:53:35.636Z,5.00
2019-03-16T21:56:04.320Z,5.00
2019-03-16T21:58:32.767Z,5.00
2019-03-16T22:01:03.970Z,5.00
2019-03-16T22:03:41.618Z,5.20
2019-03-16T22:06:02.580Z,5.30
2019-03-16T22:08:31.135Z,5.10
2019-03-16T22:10:59.634Z,4.80
2019-03-16T22:13:28.075Z,4.90
2019-03-16T22:15:56.543Z,5.00
2019-03-16T22:18:44.499Z,5.00
2019-03-16T22:21:13.040Z,4.80
2019-03-16T22:23:41.475Z,4.70
2019-03-16T22:26:09.985Z,4.70
2019-03-16T22:28:38.449Z,4.60
2019-03-16T22:31:06.883Z,4.50
2019-03-16T22:33:35.322Z,4.50
2019-03-16T22:36:03.779Z,4.40
2019-03-16T22:38:32.230Z,4.30
2019-03-16T22:41:00.666Z,4.20
2019-03-16T22:43:29.176Z,4.20
2019-03-16T22:45:57.692Z,4.20
2019-03-16T22:48:26.291Z,4.10
2019-03-16T22:50:54.826Z,4.10
2019-03-16T22:53:23.272Z,4.10
2019-03-16T22:55:51.703Z,4.20
2019-03-16T22:58:39.507Z,4.20
2019-03-16T23:01:08.199Z,4.20
2019-03-16T23:03:36.663Z,4.20
2019-03-16T23:06:05.200Z,4.10
2019-03-16T23:08:53.049Z,4.10
2019-03-16T23:11:40.935Z,4.10
2019-03-16T23:14:09.527Z,4.10
2019-03-16T23:16:37.971Z,4.00
2019-03-16T23:19:06.434Z,4.00
2019-03-16T23:21:34.877Z,4.10
2019-03-16T23:24:03.317Z,4.20
2019-03-16T23:26:38.409Z,4.30
2019-03-16T23:29:01.941Z,4.40
2019-03-16T23:31:30.392Z,4.60
2019-03-16T23:33:58.860Z,4.70
2019-03-16T23:36:27.308Z,4.80
2019-03-16T23:38:55.742Z,4.80
2019-03-16T23:41:24.211Z,4.80
2019-03-16T23:43:52.646Z,4.70
2019-03-16T23:46:21.088Z,4.80
2019-03-16T23:48:49.547Z,4.90
2019-03-16T23:51:18.152Z,5.10
2019-03-16T23:53:46.598Z,5.10
2019-03-16T23:56:15.067Z,4.90
2019-03-16T23:58:43.570Z,4.90
